sensor_id;sensor_type;location;lat;lon;timestamp;pressure;altitude;pressure_sealevel;temperature;humidity
58821;BME280;70670;52.476;13.334;2023-09-19T00:01:06;100025.94;;;17.84;85.94
58821;BME280;70670;52.476;13.334;2023-09-19T00:03:38;100019.50;;;17.85;85.82
58821;BME280;70670;52.476;13.334;2023-09-19T00:06:04;100028.94;;;17.81;86.09
58821;BME280;70670;52.476;13.334;2023-09-19T00:08:30;100027.06;;;17.81;85.79
58821;BME280;70670;52.476;13.334;2023-09-19T00:10:56;100022.53;;;17.82;85.79
58821;BME280;70670;52.476;13.334;2023-09-19T00:13:21;100023.81;;;17.78;85.59
58821;BME280;70670;52.476;13.334;2023-09-19T00:15:47;100010.69;;;17.83;85.72
58821;BME280;70670;52.476;13.334;2023-09-19T00:18:16;100011.00;;;17.80;85.69
58821;BME280;70670;52.476;13.334;2023-09-19T00:20:42;100007.75;;;17.66;86.05
58821;BME280;70670;52.476;13.334;2023-09-19T00:23:08;100006.44;;;17.70;86.02
58821;BME280;70670;52.476;13.334;2023-09-19T00:25:37;100011.03;;;17.60;86.31
58821;BME280;70670;52.476;13.334;2023-09-19T00:28:03;100008.34;;;17.51;86.84
58821;BME280;70670;52.476;13.334;2023-09-19T00:30:30;100015.06;;;17.37;87.28
58821;BME280;70670;52.476;13.334;2023-09-19T00:32:56;100012.50;;;17.26;88.08
58821;BME280;70670;52.476;13.334;2023-09-19T00:35:22;100013.53;;;17.34;87.87
58821;BME280;70670;52.476;13.334;2023-09-19T00:37:51;100003.84;;;17.22;87.83
58821;BME280;70670;52.476;13.334;2023-09-19T00:40:17;100019.66;;;17.17;88.12
58821;BME280;70670;52.476;13.334;2023-09-19T00:42:43;100007.97;;;17.16;88.55
58821;BME280;70670;52.476;13.334;2023-09-19T00:45:09;100017.66;;;17.09;88.84
58821;BME280;70670;52.476;13.334;2023-09-19T00:47:41;100010.28;;;17.11;88.61
58821;BME280;70670;52.476;13.334;2023-09-19T00:50:07;100017.66;;;17.09;88.66
58821;BME280;70670;52.476;13.334;2023-09-19T00:52:34;100023.34;;;17.06;88.55
58821;BME280;70670;52.476;13.334;2023-09-19T00:55:02;100023.66;;;17.03;89.06
58821;BME280;70670;52.476;13.334;2023-09-19T00:57:28;100021.94;;;17.02;88.93
58821;BME280;70670;52.476;13.334;2023-09-19T00:59:59;100025.50;;;16.93;89.26
58821;BME280;70670;52.476;13.334;2023-09-19T01:02:25;100036.75;;;16.88;89.57
58821;BME280;70670;52.476;13.334;2023-09-19T01:04:54;100029.06;;;16.84;89.95
58821;BME280;70670;52.476;13.334;2023-09-19T01:07:19;100021.66;;;16.86;89.78
58821;BME280;70670;52.476;13.334;2023-09-19T01:09:46;100010.28;;;16.92;89.50
58821;BME280;70670;52.476;13.334;2023-09-19T01:12:12;100025.63;;;17.01;89.03
58821;BME280;70670;52.476;13.334;2023-09-19T01:14:51;100018.41;;;16.92;88.98
58821;BME280;70670;52.476;13.334;2023-09-19T01:17:40;100029.06;;;16.84;89.80
58821;BME280;70670;52.476;13.334;2023-09-19T01:20:17;100027.34;;;16.92;89.29
58821;BME280;70670;52.476;13.334;2023-09-19T01:22:49;100029.47;;;16.89;89.39
58821;BME280;70670;52.476;13.334;2023-09-19T01:25:31;100025.78;;;16.90;89.47
58821;BME280;70670;52.476;13.334;2023-09-19T01:30:32;100028.91;;;16.85;89.52
58821;BME280;70670;52.476;13.334;2023-09-19T01:32:58;100033.91;;;16.80;89.60
58821;BME280;70670;52.476;13.334;2023-09-19T01:35:24;100021.97;;;16.83;89.58
58821;BME280;70670;52.476;13.334;2023-09-19T01:37:50;100021.22;;;16.81;89.74
58821;BME280;70670;52.476;13.334;2023-09-19T01:40:16;100025.78;;;16.80;89.62
58821;BME280;70670;52.476;13.334;2023-09-19T01:42:59;100028.63;;;16.79;89.63
58821;BME280;70670;52.476;13.334;2023-09-19T01:47:57;100027.06;;;16.76;89.85
58821;BME280;70670;52.476;13.334;2023-09-19T01:50:29;100018.63;;;16.69;90.02
58821;BME280;70670;52.476;13.334;2023-09-19T01:53:06;100026.03;;;16.67;90.33
58821;BME280;70670;52.476;13.334;2023-09-19T01:55:36;100036.53;;;16.70;90.03
58821;BME280;70670;52.476;13.334;2023-09-19T01:58:16;100029.88;;;16.65;90.58
58821;BME280;70670;52.476;13.334;2023-09-19T02:00:45;100034.97;;;16.58;90.80
58821;BME280;70670;52.476;13.334;2023-09-19T02:03:11;100041.94;;;16.51;91.31
58821;BME280;70670;52.476;13.334;2023-09-19T02:05:38;100041.47;;;16.46;91.68
58821;BME280;70670;52.476;13.334;2023-09-19T02:08:04;100041.47;;;16.46;91.67
58821;BME280;70670;52.476;13.334;2023-09-19T02:10:30;100052.84;;;16.40;92.10
58821;BME280;70670;52.476;13.334;2023-09-19T02:12:55;100049.56;;;16.36;92.38
58821;BME280;70670;52.476;13.334;2023-09-19T02:15:21;100044.59;;;16.32;92.59
58821;BME280;70670;52.476;13.334;2023-09-19T02:17:47;100046.56;;;16.30;92.86
58821;BME280;70670;52.476;13.334;2023-09-19T02:20:13;100055.66;;;16.29;92.83
58821;BME280;70670;52.476;13.334;2023-09-19T02:22:42;100063.03;;;16.27;93.01
58821;BME280;70670;52.476;13.334;2023-09-19T02:25:09;100055.94;;;16.26;93.01
58821;BME280;70670;52.476;13.334;2023-09-19T02:27:34;100067.72;;;16.25;93.14
58821;BME280;70670;52.476;13.334;2023-09-19T02:30:01;100059.63;;;16.25;93.17
58821;BME280;70670;52.476;13.334;2023-09-19T02:32:29;100063.34;;;16.23;93.26
58821;BME280;70670;52.476;13.334;2023-09-19T02:34:57;100061.34;;;16.26;92.94
58821;BME280;70670;52.476;13.334;2023-09-19T02:37:23;100059.63;;;16.25;92.97
58821;BME280;70670;52.476;13.334;2023-09-19T02:39:48;100057.94;;;16.23;93.13
58821;BME280;70670;52.476;13.334;2023-09-19T02:42:14;100072.41;;;16.22;93.25
58821;BME280;70670;52.476;13.334;2023-09-19T02:44:39;100065.88;;;16.25;93.14
58821;BME280;70670;52.476;13.334;2023-09-19T02:47:05;100064.28;;;16.22;93.31
58821;BME280;70670;52.476;13.334;2023-09-19T02:49:30;100081.50;;;16.21;93.24
58821;BME280;70670;52.476;13.334;2023-09-19T02:51:56;100086.91;;;16.21;93.25
58821;BME280;70670;52.476;13.334;2023-09-19T02:54:24;100085.91;;;16.22;93.07
58821;BME280;70670;52.476;13.334;2023-09-19T02:56:49;100087.63;;;16.23;92.85
58821;BME280;70670;52.476;13.334;2023-09-19T02:59:14;100087.91;;;16.20;92.96
58821;BME280;70670;52.476;13.334;2023-09-19T03:01:43;100088.75;;;16.21;92.92
58821;BME280;70670;52.476;13.334;2023-09-19T03:04:08;100084.19;;;16.21;93.03
58821;BME280;70670;52.476;13.334;2023-09-19T03:06:36;100101.41;;;16.20;93.02
58821;BME280;70670;52.476;13.334;2023-09-19T03:09:02;100097.00;;;16.19;92.91
58821;BME280;70670;52.476;13.334;2023-09-19T03:11:31;100091.44;;;16.21;92.40
58821;BME280;70670;52.476;13.334;2023-09-19T03:13:56;100103.94;;;16.22;92.41
58821;BME280;70670;52.476;13.334;2023-09-19T03:16:22;100099.53;;;16.21;92.43
58821;BME280;70670;52.476;13.334;2023-09-19T03:18:48;100099.69;;;16.19;92.02
58821;BME280;70670;52.476;13.334;2023-09-19T03:21:14;100104.78;;;16.22;90.69
58821;BME280;70670;52.476;13.334;2023-09-19T03:23:40;100114.06;;;16.30;90.34
58821;BME280;70670;52.476;13.334;2023-09-19T03:26:06;100111.63;;;16.27;90.40
58821;BME280;70670;52.476;13.334;2023-09-19T03:28:33;100117.88;;;16.27;90.24
58821;BME280;70670;52.476;13.334;2023-09-19T03:31:02;100116.63;;;16.31;88.42
58821;BME280;70670;52.476;13.334;2023-09-19T03:33:28;100131.00;;;16.32;88.75
58821;BME280;70670;52.476;13.334;2023-09-19T03:35:53;100116.78;;;16.30;88.97
58821;BME280;70670;52.476;13.334;2023-09-19T03:38:19;100124.44;;;16.25;88.94
58821;BME280;70670;52.476;13.334;2023-09-19T03:40:45;100118.59;;;16.19;89.53
58821;BME280;70670;52.476;13.334;2023-09-19T03:43:10;100120.56;;;16.17;89.62
58821;BME280;70670;52.476;13.334;2023-09-19T03:45:36;100127.22;;;16.13;89.89
58821;BME280;70670;52.476;13.334;2023-09-19T03:48:07;100132.88;;;16.10;90.21
58821;BME280;70670;52.476;13.334;2023-09-19T03:50:32;100131.19;;;16.09;90.01
58821;BME280;70670;52.476;13.334;2023-09-19T03:52:58;100138.69;;;16.06;89.74
58821;BME280;70670;52.476;13.334;2023-09-19T03:55:24;100138.41;;;16.09;88.38
58821;BME280;70670;52.476;13.334;2023-09-19T03:57:49;100142.97;;;16.08;87.22
58821;BME280;70670;52.476;13.334;2023-09-19T04:00:15;100148.22;;;16.10;85.84
58821;BME280;70670;52.476;13.334;2023-09-19T04:02:43;100139.72;;;16.14;84.89
58821;BME280;70670;52.476;13.334;2023-09-19T04:05:11;100135.06;;;16.16;83.52
58821;BME280;70670;52.476;13.334;2023-09-19T04:07:37;100146.44;;;16.20;83.34
58821;BME280;70670;52.476;13.334;2023-09-19T04:10:02;100142.34;;;16.26;81.61
58821;BME280;70670;52.476;13.334;2023-09-19T04:12:28;100136.94;;;16.26;81.11
58821;BME280;70670;52.476;13.334;2023-09-19T04:14:53;100139.63;;;16.26;80.43
58821;BME280;70670;52.476;13.334;2023-09-19T04:17:19;100144.19;;;16.25;80.67
58821;BME280;70670;52.476;13.334;2023-09-19T04:19:45;100146.72;;;16.27;80.30
58821;BME280;70670;52.476;13.334;2023-09-19T04:22:11;100149.72;;;16.23;80.35
58821;BME280;70670;52.476;13.334;2023-09-19T04:24:38;100156.25;;;16.21;80.20
58821;BME280;70670;52.476;13.334;2023-09-19T04:27:04;100153.69;;;16.19;80.31
58821;BME280;70670;52.476;13.334;2023-09-19T04:29:29;100157.34;;;16.18;79.90
58821;BME280;70670;52.476;13.334;2023-09-19T04:31:55;100162.03;;;16.16;79.77
58821;BME280;70670;52.476;13.334;2023-09-19T04:34:21;100156.91;;;16.13;80.19
58821;BME280;70670;52.476;13.334;2023-09-19T04:36:47;100161.47;;;16.13;80.12
58821;BME280;70670;52.476;13.334;2023-09-19T04:39:12;100168.13;;;16.09;80.31
58821;BME280;70670;52.476;13.334;2023-09-19T04:41:38;100166.53;;;16.06;80.24
58821;BME280;70670;52.476;13.334;2023-09-19T04:44:07;100162.13;;;16.05;80.14
58821;BME280;70670;52.476;13.334;2023-09-19T04:46:36;100174.03;;;16.03;80.35
58821;BME280;70670;52.476;13.334;2023-09-19T04:49:01;100176.13;;;15.99;80.61
58821;BME280;70670;52.476;13.334;2023-09-19T04:51:27;100180.69;;;15.98;80.60
58821;BME280;70670;52.476;13.334;2023-09-19T04:53:58;100180.81;;;15.97;80.68
58821;BME280;70670;52.476;13.334;2023-09-19T04:56:23;100189.91;;;15.96;80.62
58821;BME280;70670;52.476;13.334;2023-09-19T04:58:49;100191.63;;;15.97;80.62
58821;BME280;70670;52.476;13.334;2023-09-19T05:01:15;100185.63;;;15.93;80.23
58821;BME280;70670;52.476;13.334;2023-09-19T05:03:40;100187.59;;;15.91;79.97
58821;BME280;70670;52.476;13.334;2023-09-19T05:06:06;100193.00;;;15.91;80.00
58821;BME280;70670;52.476;13.334;2023-09-19T05:08:31;100195.84;;;15.90;79.70
58821;BME280;70670;52.476;13.334;2023-09-19T05:10:57;100199.53;;;15.89;80.08
58821;BME280;70670;52.476;13.334;2023-09-19T05:13:22;100200.53;;;15.88;79.81
58821;BME280;70670;52.476;13.334;2023-09-19T05:15:49;100195.84;;;15.90;79.20
58821;BME280;70670;52.476;13.334;2023-09-19T05:18:17;100210.31;;;15.89;79.43
58821;BME280;70670;52.476;13.334;2023-09-19T05:20:43;100216.72;;;15.88;79.36
58821;BME280;70670;52.476;13.334;2023-09-19T05:23:09;100222.38;;;15.85;79.49
58821;BME280;70670;52.476;13.334;2023-09-19T05:25:36;100217.22;;;15.82;79.42
58821;BME280;70670;52.476;13.334;2023-09-19T05:28:03;100213.66;;;15.81;79.55
58821;BME280;70670;52.476;13.334;2023-09-19T05:30:29;100225.47;;;15.80;79.72
58821;BME280;70670;52.476;13.334;2023-09-19T05:32:54;100230.97;;;15.79;79.64
58821;BME280;70670;52.476;13.334;2023-09-19T05:35:20;100228.50;;;15.76;79.81
58821;BME280;70670;52.476;13.334;2023-09-19T05:37:47;100232.09;;;15.76;79.51
58821;BME280;70670;52.476;13.334;2023-09-19T05:40:14;100245.69;;;15.74;79.67
58821;BME280;70670;52.476;13.334;2023-09-19T05:42:41;100245.69;;;15.74;79.54
58821;BME280;70670;52.476;13.334;2023-09-19T05:45:06;100246.56;;;15.75;79.49
58821;BME280;70670;52.476;13.334;2023-09-19T05:47:32;100252.09;;;15.73;79.38
58821;BME280;70670;52.476;13.334;2023-09-19T05:49:58;100253.09;;;15.72;79.43
58821;BME280;70670;52.476;13.334;2023-09-19T05:52:24;100259.31;;;15.73;79.55
58821;BME280;70670;52.476;13.334;2023-09-19T05:54:50;100270.97;;;15.73;79.17
58821;BME280;70670;52.476;13.334;2023-09-19T05:57:16;100273.81;;;15.72;79.25
58821;BME280;70670;52.476;13.334;2023-09-19T05:59:43;100273.81;;;15.72;79.08
58821;BME280;70670;52.476;13.334;2023-09-19T06:02:08;100280.06;;;15.72;78.90
58821;BME280;70670;52.476;13.334;2023-09-19T06:04:35;100285.47;;;15.72;79.14
58821;BME280;70670;52.476;13.334;2023-09-19T06:07:00;100288.16;;;15.72;79.18
58821;BME280;70670;52.476;13.334;2023-09-19T06:09:26;100283.00;;;15.69;79.30
58821;BME280;70670;52.476;13.334;2023-09-19T06:11:53;100288.25;;;15.71;79.13
58821;BME280;70670;52.476;13.334;2023-09-19T06:14:21;100294.50;;;15.71;78.93
58821;BME280;70670;52.476;13.334;2023-09-19T06:16:48;100300.50;;;15.75;78.92
58821;BME280;70670;52.476;13.334;2023-09-19T06:19:14;100291.47;;;15.76;78.81
58821;BME280;70670;52.476;13.334;2023-09-19T06:21:39;100300.41;;;15.77;78.88
58821;BME280;70670;52.476;13.334;2023-09-19T06:24:05;100291.19;;;15.79;78.39
58821;BME280;70670;52.476;13.334;2023-09-19T06:26:30;100304.56;;;15.81;77.94
58821;BME280;70670;52.476;13.334;2023-09-19T06:28:56;100304.56;;;15.81;77.93
58821;BME280;70670;52.476;13.334;2023-09-19T06:31:22;100302.56;;;15.83;77.93
58821;BME280;70670;52.476;13.334;2023-09-19T06:33:51;100303.16;;;15.86;77.72
58821;BME280;70670;52.476;13.334;2023-09-19T06:36:17;100303.38;;;15.94;77.78
58821;BME280;70670;52.476;13.334;2023-09-19T06:38:42;100313.53;;;16.02;77.25
58821;BME280;70670;52.476;13.334;2023-09-19T06:41:08;100321.13;;;16.08;77.52
58821;BME280;70670;52.476;13.334;2023-09-19T06:43:34;100314.47;;;16.12;76.89
58821;BME280;70670;52.476;13.334;2023-09-19T06:46:00;100315.69;;;16.19;76.62
58821;BME280;70670;52.476;13.334;2023-09-19T06:48:25;100314.88;;;16.29;76.07
58821;BME280;70670;52.476;13.334;2023-09-19T06:50:55;100315.09;;;16.37;75.03
58821;BME280;70670;52.476;13.334;2023-09-19T06:53:20;100325.94;;;16.46;75.20
58821;BME280;70670;52.476;13.334;2023-09-19T06:55:46;100277.59;;;16.22;74.22
58821;BME280;70670;52.476;13.334;2023-09-19T06:58:12;100324.97;;;16.47;74.29
58821;BME280;70670;52.476;13.334;2023-09-19T07:00:38;100325.16;;;16.56;74.18
58821;BME280;70670;52.476;13.334;2023-09-19T07:03:05;100327.06;;;16.65;73.30
58821;BME280;70670;52.476;13.334;2023-09-19T07:05:34;100334.56;;;16.82;73.45
58821;BME280;70670;52.476;13.334;2023-09-19T07:08:02;100340.72;;;16.84;72.47
58821;BME280;70670;52.476;13.334;2023-09-19T07:10:28;100336.94;;;16.96;72.19
58821;BME280;70670;52.476;13.334;2023-09-19T07:12:56;100344.38;;;17.04;71.83
58821;BME280;70670;52.476;13.334;2023-09-19T07:15:23;100347.69;;;17.17;71.42
58821;BME280;70670;52.476;13.334;2023-09-19T07:17:51;100348.72;;;17.26;68.96
58821;BME280;70670;52.476;13.334;2023-09-19T07:20:17;100348.44;;;17.29;70.20
58821;BME280;70670;52.476;13.334;2023-09-19T07:22:44;100354.19;;;17.36;70.07
58821;BME280;70670;52.476;13.334;2023-09-19T07:25:09;100364.16;;;17.35;69.78
58821;BME280;70670;52.476;13.334;2023-09-19T07:27:35;100366.38;;;17.30;68.96
58821;BME280;70670;52.476;13.334;2023-09-19T07:30:00;100355.97;;;17.26;69.16
58821;BME280;70670;52.476;13.334;2023-09-19T07:32:26;100359.25;;;17.19;69.43
58821;BME280;70670;52.476;13.334;2023-09-19T07:34:51;100370.59;;;17.13;69.84
58821;BME280;70670;52.476;13.334;2023-09-19T07:37:17;100360.25;;;17.18;69.26
58821;BME280;70670;52.476;13.334;2023-09-19T07:39:42;100372.50;;;17.23;68.31
58821;BME280;70670;52.476;13.334;2023-09-19T07:42:08;100370.06;;;17.19;68.42
58821;BME280;70670;52.476;13.334;2023-09-19T07:44:37;100377.91;;;17.23;67.75
58821;BME280;70670;52.476;13.334;2023-09-19T07:47:02;100372.88;;;17.18;67.68
58821;BME280;70670;52.476;13.334;2023-09-19T07:49:28;100373.19;;;17.15;67.82
58821;BME280;70670;52.476;13.334;2023-09-19T07:51:54;100385.81;;;17.14;67.29
58821;BME280;70670;52.476;13.334;2023-09-19T07:54:20;100400.50;;;17.21;67.09
58821;BME280;70670;52.476;13.334;2023-09-19T07:56:46;100415.03;;;17.20;66.58
58821;BME280;70670;52.476;13.334;2023-09-19T07:59:12;100401.66;;;17.19;66.71
58821;BME280;70670;52.476;13.334;2023-09-19T08:01:38;100399.81;;;17.19;66.60
58821;BME280;70670;52.476;13.334;2023-09-19T08:04:07;100405.66;;;17.25;66.27
58821;BME280;70670;52.476;13.334;2023-09-19T08:06:32;100403.97;;;17.24;66.26
58821;BME280;70670;52.476;13.334;2023-09-19T08:08:58;100387.72;;;17.24;66.15
58821;BME280;70670;52.476;13.334;2023-09-19T08:11:23;100385.47;;;17.29;65.77
58821;BME280;70670;52.476;13.334;2023-09-19T08:13:50;100382.66;;;17.40;64.79
58821;BME280;70670;52.476;13.334;2023-09-19T08:16:15;100377.56;;;17.47;64.04
58821;BME280;70670;52.476;13.334;2023-09-19T08:18:41;100394.94;;;17.44;63.60
58821;BME280;70670;52.476;13.334;2023-09-19T08:21:07;100395.09;;;17.21;64.02
58821;BME280;70670;52.476;13.334;2023-09-19T08:23:39;100392.47;;;17.10;64.64
58821;BME280;70670;52.476;13.334;2023-09-19T08:26:05;100406.09;;;16.99;65.00
58821;BME280;70670;52.476;13.334;2023-09-19T08:28:34;100400.69;;;16.99;65.34
58821;BME280;70670;52.476;13.334;2023-09-19T08:31:02;100401.75;;;17.08;64.96
58821;BME280;70670;52.476;13.334;2023-09-19T08:33:31;100404.31;;;17.09;64.78
58821;BME280;70670;52.476;13.334;2023-09-19T08:35:57;100403.00;;;17.04;64.72
58821;BME280;70670;52.476;13.334;2023-09-19T08:38:23;100415.13;;;17.09;64.42
58821;BME280;70670;52.476;13.334;2023-09-19T08:40:48;100409.28;;;17.14;64.35
58821;BME280;70670;52.476;13.334;2023-09-19T08:43:14;100398.19;;;17.07;63.35
58821;BME280;70670;52.476;13.334;2023-09-19T08:45:40;100410.97;;;17.05;63.52
58821;BME280;70670;52.476;13.334;2023-09-19T08:50:31;100422.63;;;17.27;63.19
58821;BME280;70670;52.476;13.334;2023-09-19T08:53:01;100425.59;;;17.24;62.62
58821;BME280;70670;52.476;13.334;2023-09-19T08:55:31;100427.84;;;17.18;63.13
58821;BME280;70670;52.476;13.334;2023-09-19T08:57:59;100422.34;;;17.30;62.69
58821;BME280;70670;52.476;13.334;2023-09-19T09:00:26;100425.03;;;17.30;63.08
58821;BME280;70670;52.476;13.334;2023-09-19T09:02:52;100439.38;;;17.20;61.98
58821;BME280;70670;52.476;13.334;2023-09-19T09:05:19;100427.63;;;17.10;62.71
58821;BME280;70670;52.476;13.334;2023-09-19T09:07:48;100435.81;;;17.20;62.46
58821;BME280;70670;52.476;13.334;2023-09-19T09:10:15;100439.13;;;17.24;62.30
58821;BME280;70670;52.476;13.334;2023-09-19T09:12:41;100394.28;;;17.00;62.68
58821;BME280;70670;52.476;13.334;2023-09-19T09:15:09;100452.75;;;17.43;61.86
58821;BME280;70670;52.476;13.334;2023-09-19T09:17:37;100436.28;;;17.56;61.08
58821;BME280;70670;52.476;13.334;2023-09-19T09:20:02;100433.19;;;17.70;60.34
58821;BME280;70670;52.476;13.334;2023-09-19T09:22:30;100438.13;;;17.86;60.04
58821;BME280;70670;52.476;13.334;2023-09-19T09:24:57;100455.81;;;18.00;58.98
58821;BME280;70670;52.476;13.334;2023-09-19T09:27:30;100440.38;;;17.81;58.37
58821;BME280;70670;52.476;13.334;2023-09-19T09:29:56;100438.13;;;17.96;58.91
58821;BME280;70670;52.476;13.334;2023-09-19T09:32:23;100454.22;;;17.97;58.14
58821;BME280;70670;52.476;13.334;2023-09-19T09:34:53;100443.69;;;17.94;58.36
58821;BME280;70670;52.476;13.334;2023-09-19T09:37:19;100439.66;;;17.79;57.31
58821;BME280;70670;52.476;13.334;2023-09-19T09:39:48;100446.25;;;17.55;57.15
58821;BME280;70670;52.476;13.334;2023-09-19T09:42:28;100452.25;;;17.59;58.06
58821;BME280;70670;52.476;13.334;2023-09-19T09:45:12;100451.25;;;17.60;57.33
58821;BME280;70670;52.476;13.334;2023-09-19T09:47:47;100443.34;;;17.78;57.59
58821;BME280;70670;52.476;13.334;2023-09-19T09:50:26;100456.06;;;17.87;56.27
58821;BME280;70670;52.476;13.334;2023-09-19T09:52:55;100461.44;;;17.77;56.28
58821;BME280;70670;52.476;13.334;2023-09-19T09:55:27;100452.69;;;17.74;56.08
58821;BME280;70670;52.476;13.334;2023-09-19T10:00:51;100464.47;;;17.93;54.13
58821;BME280;70670;52.476;13.334;2023-09-19T10:03:21;100464.38;;;18.05;54.23
58821;BME280;70670;52.476;13.334;2023-09-19T10:05:52;100453.56;;;18.14;52.71
58821;BME280;70670;52.476;13.334;2023-09-19T10:08:20;100460.72;;;18.35;53.97
58821;BME280;70670;52.476;13.334;2023-09-19T10:10:46;100462.72;;;18.52;53.50
58821;BME280;70670;52.476;13.334;2023-09-19T10:13:17;100464.88;;;18.58;52.51
58821;BME280;70670;52.476;13.334;2023-09-19T10:15:47;100453.16;;;18.67;52.81
58821;BME280;70670;52.476;13.334;2023-09-19T10:18:24;100457.06;;;18.75;52.11
58821;BME280;70670;52.476;13.334;2023-09-19T10:20:50;100445.78;;;18.89;51.55
58821;BME280;70670;52.476;13.334;2023-09-19T10:23:17;100443.78;;;18.91;50.96
58821;BME280;70670;52.476;13.334;2023-09-19T10:25:48;100454.47;;;18.83;51.03
58821;BME280;70670;52.476;13.334;2023-09-19T10:28:14;100449.19;;;18.62;50.22
58821;BME280;70670;52.476;13.334;2023-09-19T10:30:43;100456.75;;;18.58;50.98
58821;BME280;70670;52.476;13.334;2023-09-19T10:33:13;100451.59;;;18.55;50.90
58821;BME280;70670;52.476;13.334;2023-09-19T10:35:42;100456.16;;;18.64;51.89
58821;BME280;70670;52.476;13.334;2023-09-19T10:38:09;100455.59;;;18.61;51.43
58821;BME280;70670;52.476;13.334;2023-09-19T10:40:35;100448.34;;;18.61;50.78
58821;BME280;70670;52.476;13.334;2023-09-19T10:43:04;100444.34;;;18.65;49.45
58821;BME280;70670;52.476;13.334;2023-09-19T10:45:31;100454.47;;;18.83;48.88
58821;BME280;70670;52.476;13.334;2023-09-19T10:47:57;100441.63;;;18.95;48.51
58821;BME280;70670;52.476;13.334;2023-09-19T10:50:22;100448.03;;;19.03;47.43
58821;BME280;70670;52.476;13.334;2023-09-19T10:52:49;100459.75;;;18.94;46.52
58821;BME280;70670;52.476;13.334;2023-09-19T10:55:24;100456.63;;;18.79;46.27
58821;BME280;70670;52.476;13.334;2023-09-19T10:57:50;100452.59;;;18.64;47.25
58821;BME280;70670;52.476;13.334;2023-09-19T11:00:17;100458.91;;;18.74;47.20
58821;BME280;70670;52.476;13.334;2023-09-19T11:05:33;100459.91;;;18.83;46.58
58821;BME280;70670;52.476;13.334;2023-09-19T11:07:59;100462.31;;;18.76;46.30
58821;BME280;70670;52.476;13.334;2023-09-19T11:10:48;100458.91;;;18.74;47.13
58821;BME280;70670;52.476;13.334;2023-09-19T11:13:26;100484.16;;;18.84;46.18
58821;BME280;70670;52.476;13.334;2023-09-19T11:18:50;100472.75;;;18.81;46.14
58821;BME280;70670;52.476;13.334;2023-09-19T11:26:41;100467.00;;;19.03;46.60
58821;BME280;70670;52.476;13.334;2023-09-19T11:29:28;100468.31;;;19.09;45.76
58821;BME280;70670;52.476;13.334;2023-09-19T11:31:55;100463.97;;;19.16;46.24
58821;BME280;70670;52.476;13.334;2023-09-19T11:34:37;100466.69;;;19.26;45.36
58821;BME280;70670;52.476;13.334;2023-09-19T11:37:03;100458.81;;;19.32;45.80
58821;BME280;70670;52.476;13.334;2023-09-19T11:40:09;100454.66;;;19.38;45.62
58821;BME280;70670;52.476;13.334;2023-09-19T11:42:44;100462.22;;;19.44;46.57
58821;BME280;70670;52.476;13.334;2023-09-19T11:46:00;100468.75;;;19.51;46.05
58821;BME280;70670;52.476;13.334;2023-09-19T11:47:58;100471.78;;;19.48;45.22
58821;BME280;70670;52.476;13.334;2023-09-19T11:50:25;100468.34;;;19.46;45.07
58821;BME280;70670;52.476;13.334;2023-09-19T11:52:52;100472.06;;;19.45;44.16
58821;BME280;70670;52.476;13.334;2023-09-19T11:55:19;100462.03;;;19.65;44.56
58821;BME280;70670;52.476;13.334;2023-09-19T11:57:47;100468.44;;;19.54;43.83
58821;BME280;70670;52.476;13.334;2023-09-19T12:00:19;100456.28;;;19.58;44.03
58821;BME280;70670;52.476;13.334;2023-09-19T12:02:46;100455.75;;;19.64;43.68
58821;BME280;70670;52.476;13.334;2023-09-19T12:05:12;100459.91;;;19.49;44.41
58821;BME280;70670;52.476;13.334;2023-09-19T12:07:44;100459.78;;;19.41;43.79
58821;BME280;70670;52.476;13.334;2023-09-19T12:10:13;100468.50;;;19.45;43.69
58821;BME280;70670;52.476;13.334;2023-09-19T12:12:40;100476.06;;;19.41;43.13
58821;BME280;70670;52.476;13.334;2023-09-19T12:15:11;100475.41;;;19.20;43.58
58821;BME280;70670;52.476;13.334;2023-09-19T12:17:37;100476.97;;;19.22;43.96
58821;BME280;70670;52.476;13.334;2023-09-19T12:20:04;100485.81;;;19.24;43.16
58821;BME280;70670;52.476;13.334;2023-09-19T12:22:39;100484.94;;;19.24;42.43
58821;BME280;70670;52.476;13.334;2023-09-19T12:25:05;100475.28;;;19.11;41.83
58821;BME280;70670;52.476;13.334;2023-09-19T12:27:32;100468.09;;;19.30;42.42
58821;BME280;70670;52.476;13.334;2023-09-19T12:30:08;100462.06;;;19.46;42.03
58821;BME280;70670;52.476;13.334;2023-09-19T12:32:34;100462.00;;;19.55;41.99
58821;BME280;70670;52.476;13.334;2023-09-19T12:35:00;100468.25;;;19.75;41.87
58821;BME280;70670;52.476;13.334;2023-09-19T12:37:32;100465.53;;;19.75;41.75
58821;BME280;70670;52.476;13.334;2023-09-19T12:40:07;100462.06;;;19.83;41.85
58821;BME280;70670;52.476;13.334;2023-09-19T12:42:43;100454.81;;;19.74;42.53
58821;BME280;70670;52.476;13.334;2023-09-19T12:45:09;100458.75;;;19.61;42.29
58821;BME280;70670;52.476;13.334;2023-09-19T12:47:35;100463.19;;;19.43;42.26
58821;BME280;70670;52.476;13.334;2023-09-19T12:50:11;100467.19;;;19.49;43.07
58821;BME280;70670;52.476;13.334;2023-09-19T12:55:19;100457.47;;;19.46;43.00
58821;BME280;70670;52.476;13.334;2023-09-19T12:57:54;100460.94;;;19.38;43.12
58821;BME280;70670;52.476;13.334;2023-09-19T13:00:20;100457.81;;;19.33;43.49
58821;BME280;70670;52.476;13.334;2023-09-19T13:05:49;100475.13;;;19.23;44.56
58821;BME280;70670;52.476;13.334;2023-09-19T13:08:23;100466.41;;;19.29;43.65
58821;BME280;70670;52.476;13.334;2023-09-19T13:13:38;100472.69;;;19.20;44.28